sensor_id;sensor_type;location;lat;lon;timestamp;P1;durP1;ratioP1;P2;durP2;ratioP2
60312;SDS011;46158;52.850;6.970;2023-09-19T00:00:18;4.35;;;2.20;;
60312;SDS011;46158;52.850;6.970;2023-09-19T00:02:53;4.20;;;1.95;;
60312;SDS011;46158;52.850;6.970;2023-09-19T00:05:19;4.05;;;2.00;;
60312;SDS011;46158;52.850;6.970;2023-09-19T00:07:49;5.70;;;2.15;;
60312;SDS011;46158;52.850;6.970;2023-09-19T00:10:15;6.05;;;2.40;;
60312;SDS011;46158;52.850;6.970;2023-09-19T00:12:45;4.38;;;2.28;;
60312;SDS011;46158;52.850;6.970;2023-09-19T00:15:11;2.60;;;1.90;;
60312;SDS011;46158;52.850;6.970;2023-09-19T00:17:36;4.57;;;2.20;;
60312;SDS011;46158;52.850;6.970;2023-09-19T00:20:03;3.55;;;1.90;;
60312;SDS011;46158;52.850;6.970;2023-09-19T00:22:33;5.40;;;2.13;;
60312;SDS011;46158;52.850;6.970;2023-09-19T00:24:58;4.18;;;1.92;;
60312;SDS011;46158;52.850;6.970;2023-09-19T00:27:25;4.82;;;2.20;;
60312;SDS011;46158;52.850;6.970;2023-09-19T00:29:50;4.55;;;2.15;;
60312;SDS011;46158;52.850;6.970;2023-09-19T00:32:18;6.90;;;2.40;;
60312;SDS011;46158;52.850;6.970;2023-09-19T00:34:43;2.63;;;2.00;;
60312;SDS011;46158;52.850;6.970;2023-09-19T00:37:09;2.75;;;2.00;;
60312;SDS011;46158;52.850;6.970;2023-09-19T00:39:36;4.85;;;2.05;;
60312;SDS011;46158;52.850;6.970;2023-09-19T00:42:02;5.20;;;2.20;;
60312;SDS011;46158;52.850;6.970;2023-09-19T00:44:30;3.63;;;1.83;;
60312;SDS011;46158;52.850;6.970;2023-09-19T00:46:55;4.82;;;1.98;;
60312;SDS011;46158;52.850;6.970;2023-09-19T00:49:21;4.93;;;2.22;;
60312;SDS011;46158;52.850;6.970;2023-09-19T00:51:48;5.75;;;2.10;;
60312;SDS011;46158;52.850;6.970;2023-09-19T00:54:14;4.53;;;2.10;;
60312;SDS011;46158;52.850;6.970;2023-09-19T00:56:43;3.15;;;1.85;;
60312;SDS011;46158;52.850;6.970;2023-09-19T00:59:10;5.55;;;2.10;;
60312;SDS011;46158;52.850;6.970;2023-09-19T01:01:37;5.60;;;2.00;;
60312;SDS011;46158;52.850;6.970;2023-09-19T01:04:05;4.82;;;2.00;;
60312;SDS011;46158;52.850;6.970;2023-09-19T01:06:31;3.83;;;2.03;;
60312;SDS011;46158;52.850;6.970;2023-09-19T01:08:57;3.83;;;1.88;;
60312;SDS011;46158;52.850;6.970;2023-09-19T01:11:33;4.55;;;1.70;;
60312;SDS011;46158;52.850;6.970;2023-09-19T01:30:14;4.70;;;1.88;;
60312;SDS011;46158;52.850;6.970;2023-09-19T01:32:42;3.88;;;1.83;;
60312;SDS011;46158;52.850;6.970;2023-09-19T01:35:09;4.32;;;1.90;;
60312;SDS011;46158;52.850;6.970;2023-09-19T01:37:38;4.88;;;2.17;;
60312;SDS011;46158;52.850;6.970;2023-09-19T01:45:42;4.07;;;2.00;;
60312;SDS011;46158;52.850;6.970;2023-09-19T01:51:21;3.75;;;2.00;;
60312;SDS011;46158;52.850;6.970;2023-09-19T01:54:06;4.47;;;1.92;;
60312;SDS011;46158;52.850;6.970;2023-09-19T01:56:49;5.43;;;1.80;;
60312;SDS011;46158;52.850;6.970;2023-09-19T01:59:24;4.40;;;1.98;;
60312;SDS011;46158;52.850;6.970;2023-09-19T02:01:53;4.00;;;1.90;;
60312;SDS011;46158;52.850;6.970;2023-09-19T02:04:20;4.18;;;1.90;;
60312;SDS011;46158;52.850;6.970;2023-09-19T02:06:46;3.38;;;2.10;;
60312;SDS011;46158;52.850;6.970;2023-09-19T02:09:14;2.33;;;1.70;;
60312;SDS011;46158;52.850;6.970;2023-09-19T02:11:40;5.13;;;1.88;;
60312;SDS011;46158;52.850;6.970;2023-09-19T02:14:07;3.70;;;1.70;;
60312;SDS011;46158;52.850;6.970;2023-09-19T02:16:34;5.78;;;1.88;;
60312;SDS011;46158;52.850;6.970;2023-09-19T02:19:00;3.72;;;1.77;;
60312;SDS011;46158;52.850;6.970;2023-09-19T02:21:26;3.55;;;1.80;;
60312;SDS011;46158;52.850;6.970;2023-09-19T02:23:55;3.10;;;1.60;;
60312;SDS011;46158;52.850;6.970;2023-09-19T02:26:21;2.90;;;1.70;;
60312;SDS011;46158;52.850;6.970;2023-09-19T02:28:50;5.63;;;1.77;;
60312;SDS011;46158;52.850;6.970;2023-09-19T02:31:16;4.07;;;1.90;;
60312;SDS011;46158;52.850;6.970;2023-09-19T02:33:42;4.35;;;2.00;;
60312;SDS011;46158;52.850;6.970;2023-09-19T02:36:08;4.00;;;1.75;;
60312;SDS011;46158;52.850;6.970;2023-09-19T02:38:34;2.90;;;1.77;;
60312;SDS011;46158;52.850;6.970;2023-09-19T02:41:01;4.18;;;1.90;;
60312;SDS011;46158;52.850;6.970;2023-09-19T02:43:27;3.95;;;1.80;;
60312;SDS011;46158;52.850;6.970;2023-09-19T02:45:52;6.85;;;1.88;;
60312;SDS011;46158;52.850;6.970;2023-09-19T02:48:18;3.00;;;1.80;;
60312;SDS011;46158;52.850;6.970;2023-09-19T02:50:44;4.82;;;1.95;;
60312;SDS011;46158;52.850;6.970;2023-09-19T02:53:10;4.40;;;2.00;;
60312;SDS011;46158;52.850;6.970;2023-09-19T02:55:37;4.28;;;1.92;;
60312;SDS011;46158;52.850;6.970;2023-09-19T02:58:05;3.08;;;1.85;;
60312;SDS011;46158;52.850;6.970;2023-09-19T03:00:33;5.53;;;1.90;;
60312;SDS011;46158;52.850;6.970;2023-09-19T03:03:00;4.07;;;1.70;;
60312;SDS011;46158;52.850;6.970;2023-09-19T03:05:27;2.00;;;1.77;;
60312;SDS011;46158;52.850;6.970;2023-09-19T03:07:55;5.57;;;1.85;;
60312;SDS011;46158;52.850;6.970;2023-09-19T03:10:21;4.00;;;1.88;;
60312;SDS011;46158;52.850;6.970;2023-09-19T03:12:47;3.67;;;1.90;;
60312;SDS011;46158;52.850;6.970;2023-09-19T03:15:14;5.85;;;2.05;;
60312;SDS011;46158;52.850;6.970;2023-09-19T03:17:47;4.10;;;2.00;;
60312;SDS011;46158;52.850;6.970;2023-09-19T03:20:13;4.53;;;1.70;;
60312;SDS011;46158;52.850;6.970;2023-09-19T03:22:45;2.67;;;1.55;;
60312;SDS011;46158;52.850;6.970;2023-09-19T03:25:11;4.55;;;1.75;;
60312;SDS011;46158;52.850;6.970;2023-09-19T03:27:38;6.72;;;2.25;;
60312;SDS011;46158;52.850;6.970;2023-09-19T03:30:04;4.13;;;1.77;;
60312;SDS011;46158;52.850;6.970;2023-09-19T03:32:34;4.68;;;1.83;;
60312;SDS011;46158;52.850;6.970;2023-09-19T03:35:00;4.47;;;1.88;;
60312;SDS011;46158;52.850;6.970;2023-09-19T03:37:27;3.05;;;1.70;;
60312;SDS011;46158;52.850;6.970;2023-09-19T03:39:52;3.40;;;1.85;;
60312;SDS011;46158;52.850;6.970;2023-09-19T03:42:18;3.35;;;1.90;;
60312;SDS011;46158;52.850;6.970;2023-09-19T03:44:50;2.50;;;1.60;;
60312;SDS011;46158;52.850;6.970;2023-09-19T03:47:17;3.92;;;1.80;;
60312;SDS011;46158;52.850;6.970;2023-09-19T03:49:44;3.53;;;1.60;;
60312;SDS011;46158;52.850;6.970;2023-09-19T03:52:09;2.38;;;1.70;;
60312;SDS011;46158;52.850;6.970;2023-09-19T03:54:35;4.00;;;1.80;;
60312;SDS011;46158;52.850;6.970;2023-09-19T03:57:01;2.50;;;1.70;;
60312;SDS011;46158;52.850;6.970;2023-09-19T03:59:29;5.43;;;1.88;;
60312;SDS011;46158;52.850;6.970;2023-09-19T04:01:54;4.40;;;1.70;;
60312;SDS011;46158;52.850;6.970;2023-09-19T04:04:22;3.38;;;1.60;;
60312;SDS011;46158;52.850;6.970;2023-09-19T04:06:50;3.10;;;1.80;;
60312;SDS011;46158;52.850;6.970;2023-09-19T04:09:18;4.43;;;1.80;;
60312;SDS011;46158;52.850;6.970;2023-09-19T04:11:44;3.60;;;1.90;;
60312;SDS011;46158;52.850;6.970;2023-09-19T04:14:09;3.45;;;1.70;;
60312;SDS011;46158;52.850;6.970;2023-09-19T04:16:35;5.35;;;1.83;;
60312;SDS011;46158;52.850;6.970;2023-09-19T04:19:01;3.55;;;1.73;;
60312;SDS011;46158;52.850;6.970;2023-09-19T04:21:28;3.00;;;1.67;;
60312;SDS011;46158;52.850;6.970;2023-09-19T04:23:54;2.28;;;1.60;;
60312;SDS011;46158;52.850;6.970;2023-09-19T04:26:20;5.85;;;2.05;;
60312;SDS011;46158;52.850;6.970;2023-09-19T04:28:46;3.20;;;1.80;;
60312;SDS011;46158;52.850;6.970;2023-09-19T04:31:12;3.63;;;1.60;;
60312;SDS011;46158;52.850;6.970;2023-09-19T04:33:39;2.85;;;1.60;;
60312;SDS011;46158;52.850;6.970;2023-09-19T04:36:05;3.58;;;1.70;;
60312;SDS011;46158;52.850;6.970;2023-09-19T04:38:32;8.02;;;2.00;;
60312;SDS011;46158;52.850;6.970;2023-09-19T04:40:59;6.13;;;2.00;;
60312;SDS011;46158;52.850;6.970;2023-09-19T04:43:25;5.47;;;1.90;;
60312;SDS011;46158;52.850;6.970;2023-09-19T04:45:51;6.40;;;2.00;;
60312;SDS011;46158;52.850;6.970;2023-09-19T04:48:21;4.60;;;1.90;;
60312;SDS011;46158;52.850;6.970;2023-09-19T04:50:49;4.47;;;1.70;;
60312;SDS011;46158;52.850;6.970;2023-09-19T04:53:16;4.80;;;1.88;;
60312;SDS011;46158;52.850;6.970;2023-09-19T04:55:42;4.93;;;2.00;;
60312;SDS011;46158;52.850;6.970;2023-09-19T04:58:08;8.23;;;2.25;;
60312;SDS011;46158;52.850;6.970;2023-09-19T05:00:35;4.70;;;2.08;;
60312;SDS011;46158;52.850;6.970;2023-09-19T05:03:00;4.00;;;1.95;;
60312;SDS011;46158;52.850;6.970;2023-09-19T05:05:26;6.80;;;2.10;;
60312;SDS011;46158;52.850;6.970;2023-09-19T05:07:52;6.53;;;2.08;;
60312;SDS011;46158;52.850;6.970;2023-09-19T05:10:19;7.82;;;2.03;;
60312;SDS011;46158;52.850;6.970;2023-09-19T05:12:45;6.57;;;2.10;;
60312;SDS011;46158;52.850;6.970;2023-09-19T05:15:13;5.40;;;1.67;;
60312;SDS011;46158;52.850;6.970;2023-09-19T05:17:40;3.50;;;1.80;;
60312;SDS011;46158;52.850;6.970;2023-09-19T05:20:06;5.95;;;1.95;;
60312;SDS011;46158;52.850;6.970;2023-09-19T05:22:49;3.90;;;1.98;;
60312;SDS011;46158;52.850;6.970;2023-09-19T05:25:22;5.60;;;2.05;;
60312;SDS011;46158;52.850;6.970;2023-09-19T05:27:49;4.82;;;1.95;;
60312;SDS011;46158;52.850;6.970;2023-09-19T05:30:17;4.47;;;1.88;;
60312;SDS011;46158;52.850;6.970;2023-09-19T05:32:45;3.72;;;1.67;;
60312;SDS011;46158;52.850;6.970;2023-09-19T05:35:10;4.10;;;1.70;;
60312;SDS011;46158;52.850;6.970;2023-09-19T05:37:38;7.97;;;2.10;;
60312;SDS011;46158;52.850;6.970;2023-09-19T05:40:04;5.15;;;1.85;;
60312;SDS011;46158;52.850;6.970;2023-09-19T05:42:34;7.25;;;2.00;;
60312;SDS011;46158;52.850;6.970;2023-09-19T05:45:00;5.35;;;2.08;;
60312;SDS011;46158;52.850;6.970;2023-09-19T05:47:25;4.38;;;1.83;;
60312;SDS011;46158;52.850;6.970;2023-09-19T05:49:51;4.57;;;1.90;;
60312;SDS011;46158;52.850;6.970;2023-09-19T05:52:17;6.93;;;2.08;;
60312;SDS011;46158;52.850;6.970;2023-09-19T05:54:43;3.85;;;1.95;;
60312;SDS011;46158;52.850;6.970;2023-09-19T05:57:09;7.65;;;1.88;;
60312;SDS011;46158;52.850;6.970;2023-09-19T05:59:37;4.03;;;1.80;;
60312;SDS011;46158;52.850;6.970;2023-09-19T06:02:04;6.20;;;1.90;;
60312;SDS011;46158;52.850;6.970;2023-09-19T06:04:31;8.50;;;2.15;;
60312;SDS011;46158;52.850;6.970;2023-09-19T06:06:57;3.60;;;1.90;;
60312;SDS011;46158;52.850;6.970;2023-09-19T06:09:23;8.27;;;2.40;;
60312;SDS011;46158;52.850;6.970;2023-09-19T06:11:48;8.73;;;2.10;;
60312;SDS011;46158;52.850;6.970;2023-09-19T06:14:14;7.90;;;2.20;;
60312;SDS011;46158;52.850;6.970;2023-09-19T06:16:42;9.20;;;2.30;;
60312;SDS011;46158;52.850;6.970;2023-09-19T06:19:08;8.65;;;2.20;;
60312;SDS011;46158;52.850;6.970;2023-09-19T06:21:34;9.57;;;2.20;;
60312;SDS011;46158;52.850;6.970;2023-09-19T06:24:01;6.20;;;2.00;;
60312;SDS011;46158;52.850;6.970;2023-09-19T06:26:27;10.70;;;2.10;;
60312;SDS011;46158;52.850;6.970;2023-09-19T06:28:54;9.35;;;2.30;;
60312;SDS011;46158;52.850;6.970;2023-09-19T06:31:20;7.80;;;2.15;;
60312;SDS011;46158;52.850;6.970;2023-09-19T06:33:48;6.65;;;2.30;;
60312;SDS011;46158;52.850;6.970;2023-09-19T06:36:13;6.55;;;2.13;;
60312;SDS011;46158;52.850;6.970;2023-09-19T06:38:40;7.30;;;2.40;;
60312;SDS011;46158;52.850;6.970;2023-09-19T06:41:06;5.65;;;2.22;;
60312;SDS011;46158;52.850;6.970;2023-09-19T06:43:33;7.00;;;2.05;;
60312;SDS011;46158;52.850;6.970;2023-09-19T06:45:59;11.43;;;2.60;;
60312;SDS011;46158;52.850;6.970;2023-09-19T06:48:26;11.73;;;2.50;;
60312;SDS011;46158;52.850;6.970;2023-09-19T06:50:57;12.13;;;2.40;;
60312;SDS011;46158;52.850;6.970;2023-09-19T06:53:26;12.02;;;2.47;;
60312;SDS011;46158;52.850;6.970;2023-09-19T06:55:52;10.93;;;2.45;;
60312;SDS011;46158;52.850;6.970;2023-09-19T06:58:18;12.55;;;2.50;;
60312;SDS011;46158;52.850;6.970;2023-09-19T07:00:45;12.70;;;2.50;;
60312;SDS011;46158;52.850;6.970;2023-09-19T07:03:11;12.38;;;2.40;;
60312;SDS011;46158;52.850;6.970;2023-09-19T07:05:39;13.20;;;2.60;;
60312;SDS011;46158;52.850;6.970;2023-09-19T07:08:05;10.10;;;2.40;;
60312;SDS011;46158;52.850;6.970;2023-09-19T07:10:32;12.68;;;3.20;;
60312;SDS011;46158;52.850;6.970;2023-09-19T07:15:34;11.10;;;2.38;;
60312;SDS011;46158;52.850;6.970;2023-09-19T07:18:06;14.02;;;2.65;;
60312;SDS011;46158;52.850;6.970;2023-09-19T07:20:35;10.07;;;2.43;;
60312;SDS011;46158;52.850;6.970;2023-09-19T07:23:02;11.90;;;2.80;;
60312;SDS011;46158;52.850;6.970;2023-09-19T07:25:28;11.25;;;2.63;;
60312;SDS011;46158;52.850;6.970;2023-09-19T07:27:57;12.70;;;2.50;;
60312;SDS011;46158;52.850;6.970;2023-09-19T07:30:25;12.02;;;2.70;;
60312;SDS011;46158;52.850;6.970;2023-09-19T07:32:51;12.93;;;2.45;;
60312;SDS011;46158;52.850;6.970;2023-09-19T07:35:17;11.55;;;2.70;;
60312;SDS011;46158;52.850;6.970;2023-09-19T07:37:47;15.63;;;2.67;;
60312;SDS011;46158;52.850;6.970;2023-09-19T07:40:16;12.48;;;2.60;;
60312;SDS011;46158;52.850;6.970;2023-09-19T07:42:42;11.55;;;2.55;;
60312;SDS011;46158;52.850;6.970;2023-09-19T07:45:09;14.13;;;2.78;;
60312;SDS011;46158;52.850;6.970;2023-09-19T07:47:47;15.20;;;2.75;;
60312;SDS011;46158;52.850;6.970;2023-09-19T07:50:15;10.52;;;2.53;;
60312;SDS011;46158;52.850;6.970;2023-09-19T07:52:44;12.52;;;2.50;;
60312;SDS011;46158;52.850;6.970;2023-09-19T07:55:10;11.43;;;2.30;;
60312;SDS011;46158;52.850;6.970;2023-09-19T07:57:40;10.35;;;2.63;;
60312;SDS011;46158;52.850;6.970;2023-09-19T08:00:07;12.55;;;2.70;;
60312;SDS011;46158;52.850;6.970;2023-09-19T08:02:35;15.10;;;2.72;;
60312;SDS011;46158;52.850;6.970;2023-09-19T08:05:03;10.05;;;2.58;;
60312;SDS011;46158;52.850;6.970;2023-09-19T08:07:35;10.38;;;2.63;;
60312;SDS011;46158;52.850;6.970;2023-09-19T08:10:05;15.18;;;2.75;;
60312;SDS011;46158;52.850;6.970;2023-09-19T08:12:39;12.32;;;2.50;;
60312;SDS011;46158;52.850;6.970;2023-09-19T08:15:11;15.82;;;2.65;;
60312;SDS011;46158;52.850;6.970;2023-09-19T08:17:38;15.32;;;2.90;;
60312;SDS011;46158;52.850;6.970;2023-09-19T08:20:04;13.25;;;2.40;;
60312;SDS011;46158;52.850;6.970;2023-09-19T08:22:30;13.45;;;2.55;;
60312;SDS011;46158;52.850;6.970;2023-09-19T08:24:57;13.85;;;2.45;;
60312;SDS011;46158;52.850;6.970;2023-09-19T08:27:24;17.25;;;3.10;;
60312;SDS011;46158;52.850;6.970;2023-09-19T08:29:52;15.13;;;3.13;;
60312;SDS011;46158;52.850;6.970;2023-09-19T08:32:19;12.60;;;2.95;;
60312;SDS011;46158;52.850;6.970;2023-09-19T08:34:49;15.07;;;2.75;;
60312;SDS011;46158;52.850;6.970;2023-09-19T08:37:15;13.70;;;2.85;;
60312;SDS011;46158;52.850;6.970;2023-09-19T08:39:42;14.30;;;3.28;;
60312;SDS011;46158;52.850;6.970;2023-09-19T08:42:08;13.93;;;2.65;;
60312;SDS011;46158;52.850;6.970;2023-09-19T08:44:36;12.00;;;2.80;;
60312;SDS011;46158;52.850;6.970;2023-09-19T08:47:09;14.63;;;2.90;;
60312;SDS011;46158;52.850;6.970;2023-09-19T08:49:53;13.00;;;3.08;;
60312;SDS011;46158;52.850;6.970;2023-09-19T08:52:46;13.43;;;2.75;;
60312;SDS011;46158;52.850;6.970;2023-09-19T08:55:16;13.95;;;2.80;;
60312;SDS011;46158;52.850;6.970;2023-09-19T09:00:14;13.95;;;3.10;;
60312;SDS011;46158;52.850;6.970;2023-09-19T09:02:43;13.55;;;2.85;;
60312;SDS011;46158;52.850;6.970;2023-09-19T09:05:10;14.63;;;2.80;;
60312;SDS011;46158;52.850;6.970;2023-09-19T09:07:36;12.68;;;2.75;;
60312;SDS011;46158;52.850;6.970;2023-09-19T09:10:03;11.98;;;2.60;;
60312;SDS011;46158;52.850;6.970;2023-09-19T09:12:30;11.98;;;2.80;;
60312;SDS011;46158;52.850;6.970;2023-09-19T09:14:56;14.18;;;2.88;;
60312;SDS011;46158;52.850;6.970;2023-09-19T09:17:22;13.77;;;3.08;;
60312;SDS011;46158;52.850;6.970;2023-09-19T09:19:51;14.23;;;2.72;;
60312;SDS011;46158;52.850;6.970;2023-09-19T09:22:18;13.38;;;3.03;;
60312;SDS011;46158;52.850;6.970;2023-09-19T09:24:59;12.20;;;2.78;;
60312;SDS011;46158;52.850;6.970;2023-09-19T09:27:28;9.85;;;2.60;;
60312;SDS011;46158;52.850;6.970;2023-09-19T09:29:54;13.38;;;2.70;;
60312;SDS011;46158;52.850;6.970;2023-09-19T09:34:53;11.93;;;2.67;;
60312;SDS011;46158;52.850;6.970;2023-09-19T09:37:20;16.52;;;2.70;;
60312;SDS011;46158;52.850;6.970;2023-09-19T09:39:50;15.00;;;2.83;;
60312;SDS011;46158;52.850;6.970;2023-09-19T09:42:35;11.48;;;2.70;;
60312;SDS011;46158;52.850;6.970;2023-09-19T09:45:23;14.82;;;2.92;;
60312;SDS011;46158;52.850;6.970;2023-09-19T09:47:58;13.85;;;3.00;;
60312;SDS011;46158;52.850;6.970;2023-09-19T09:50:29;15.70;;;3.00;;
60312;SDS011;46158;52.850;6.970;2023-09-19T09:53:21;12.80;;;2.60;;
60312;SDS011;46158;52.850;6.970;2023-09-19T09:58:22;12.20;;;2.83;;
60312;SDS011;46158;52.850;6.970;2023-09-19T10:00:54;12.35;;;2.65;;
60312;SDS011;46158;52.850;6.970;2023-09-19T10:03:37;11.27;;;2.70;;
60312;SDS011;46158;52.850;6.970;2023-09-19T10:06:08;16.65;;;2.97;;
60312;SDS011;46158;52.850;6.970;2023-09-19T10:11:40;11.38;;;2.83;;
60312;SDS011;46158;52.850;6.970;2023-09-19T10:14:11;15.27;;;2.80;;
60312;SDS011;46158;52.850;6.970;2023-09-19T10:16:48;9.65;;;2.50;;
60312;SDS011;46158;52.850;6.970;2023-09-19T10:19:20;22.88;;;6.72;;
60312;SDS011;46158;52.850;6.970;2023-09-19T10:21:49;1026.15;;;738.50;;
60312;SDS011;46158;52.850;6.970;2023-09-19T10:24:16;806.20;;;647.05;;
60312;SDS011;46158;52.850;6.970;2023-09-19T10:26:44;720.50;;;575.78;;
60312;SDS011;46158;52.850;6.970;2023-09-19T10:29:12;616.88;;;490.02;;
60312;SDS011;46158;52.850;6.970;2023-09-19T10:31:41;578.25;;;451.70;;
60312;SDS011;46158;52.850;6.970;2023-09-19T10:34:12;513.40;;;382.58;;
60312;SDS011;46158;52.850;6.970;2023-09-19T10:36:40;459.17;;;334.15;;
60312;SDS011;46158;52.850;6.970;2023-09-19T10:39:11;404.58;;;287.80;;
60312;SDS011;46158;52.850;6.970;2023-09-19T10:41:39;375.03;;;257.20;;
60312;SDS011;46158;52.850;6.970;2023-09-19T10:44:05;358.48;;;241.27;;
60312;SDS011;46158;52.850;6.970;2023-09-19T10:46:32;497.48;;;362.65;;
60312;SDS011;46158;52.850;6.970;2023-09-19T10:49:01;517.35;;;379.98;;
60312;SDS011;46158;52.850;6.970;2023-09-19T10:51:31;549.15;;;417.83;;
60312;SDS011;46158;52.850;6.970;2023-09-19T10:54:11;554.03;;;424.08;;
60312;SDS011;46158;52.850;6.970;2023-09-19T10:56:42;543.45;;;414.77;;
60312;SDS011;46158;52.850;6.970;2023-09-19T10:59:12;539.67;;;402.42;;
60312;SDS011;46158;52.850;6.970;2023-09-19T11:04:31;529.50;;;393.52;;
60312;SDS011;46158;52.850;6.970;2023-09-19T11:07:02;510.80;;;370.27;;
60312;SDS011;46158;52.850;6.970;2023-09-19T11:09:42;494.00;;;363.33;;
60312;SDS011;46158;52.850;6.970;2023-09-19T11:12:11;487.17;;;352.45;;
60312;SDS011;46158;52.850;6.970;2023-09-19T11:14:38;477.13;;;349.90;;
60312;SDS011;46158;52.850;6.970;2023-09-19T11:28:38;446.83;;;318.20;;
60312;SDS011;46158;52.850;6.970;2023-09-19T11:30:47;443.88;;;312.88;;
60312;SDS011;46158;52.850;6.970;2023-09-19T11:33:18;428.80;;;304.55;;
60312;SDS011;46158;52.850;6.970;2023-09-19T11:36:07;430.17;;;302.73;;
60312;SDS011;46158;52.850;6.970;2023-09-19T11:43:50;413.60;;;282.63;;
60312;SDS011;46158;52.850;6.970;2023-09-19T11:46:17;411.85;;;283.63;;
60312;SDS011;46158;52.850;6.970;2023-09-19T11:48:49;408.63;;;277.00;;
60312;SDS011;46158;52.850;6.970;2023-09-19T11:51:20;387.98;;;265.20;;
60312;SDS011;46158;52.850;6.970;2023-09-19T11:53:52;389.40;;;263.40;;
60312;SDS011;46158;52.850;6.970;2023-09-19T11:56:25;381.98;;;259.80;;
60312;SDS011;46158;52.850;6.970;2023-09-19T11:58:56;370.90;;;251.43;;
60312;SDS011;46158;52.850;6.970;2023-09-19T12:01:25;370.48;;;250.02;;
60312;SDS011;46158;52.850;6.970;2023-09-19T12:03:54;360.65;;;244.55;;
60312;SDS011;46158;52.850;6.970;2023-09-19T12:06:22;353.55;;;239.80;;
60312;SDS011;46158;52.850;6.970;2023-09-19T12:08:49;352.80;;;236.35;;
60312;SDS011;46158;52.850;6.970;2023-09-19T12:11:16;352.50;;;237.98;;
60312;SDS011;46158;52.850;6.970;2023-09-19T12:13:43;364.00;;;243.57;;
60312;SDS011;46158;52.850;6.970;2023-09-19T12:16:13;340.92;;;234.25;;
60312;SDS011;46158;52.850;6.970;2023-09-19T12:18:45;321.80;;;219.18;;
60312;SDS011;46158;52.850;6.970;2023-09-19T12:21:22;305.52;;;201.70;;
60312;SDS011;46158;52.850;6.970;2023-09-19T12:23:59;294.67;;;194.30;;
60312;SDS011;46158;52.850;6.970;2023-09-19T12:26:29;286.42;;;188.70;;
60312;SDS011;46158;52.850;6.970;2023-09-19T12:28:59;280.38;;;181.82;;
60312;SDS011;46158;52.850;6.970;2023-09-19T12:31:26;277.15;;;179.85;;
60312;SDS011;46158;52.850;6.970;2023-09-19T12:33:55;277.48;;;181.05;;
60312;SDS011;46158;52.850;6.970;2023-09-19T12:38:54;252.48;;;162.50;;
60312;SDS011;46158;52.850;6.970;2023-09-19T12:41:20;261.90;;;170.48;;
60312;SDS011;46158;52.850;6.970;2023-09-19T12:43:47;236.70;;;152.23;;
60312;SDS011;46158;52.850;6.970;2023-09-19T12:46:13;207.60;;;136.57;;
60312;SDS011;46158;52.850;6.970;2023-09-19T12:48:40;191.73;;;125.35;;
60312;SDS011;46158;52.850;6.970;2023-09-19T12:51:12;140.75;;;92.45;;
60312;SDS011;46158;52.850;6.970;2023-09-19T12:53:38;153.15;;;101.72;;
60312;SDS011;46158;52.850;6.970;2023-09-19T12:56:09;149.60;;;97.80;;
60312;SDS011;46158;52.850;6.970;2023-09-19T12:58:51;135.32;;;90.05;;
60312;SDS011;46158;52.850;6.970;2023-09-19T13:01:21;118.88;;;79.43;;
60312;SDS011;46158;52.850;6.970;2023-09-19T13:04:14;108.28;;;72.53;;
60312;SDS011;46158;52.850;6.970;2023-09-19T13:06:54;78.68;;;51.25;;
60312;SDS011;46158;52.850;6.970;2023-09-19T13:09:20;101.30;;;63.17;;
60312;SDS011;46158;52.850;6.970;2023-09-19T13:11:49;74.47;;;47.75;;
60312;SDS011;46158;52.850;6.970;2023-09-19T13:19:50;59.88;;;37.67;;
60312;SDS011;46158;52.850;6.970;2023-09-19T13:25:08;54.22;;;33.85;;
60312;SDS011;46158;52.850;6.970;2023-09-19T13:27:39;53.38;;;31.70;;
60312;SDS011;46158;52.850;6.970;2023-09-19T13:30:21;63.00;;;38.83;;
60312;SDS011;46158;52.850;6.970;2023-09-19T13:32:47;54.60;;;32.53;;
60312;SDS011;46158;52.850;6.970;2023-09-19T13:35:13;47.47;;;29.27;;
60312;SDS011;46158;52.850;6.970;2023-09-19T13:37:40;50.28;;;30.55;;
60312;SDS011;46158;52.850;6.970;2023-09-19T13:40:13;48.80;;;29.05;;
60312;SDS011;46158;52.850;6.970;2023-09-19T13:42:39;49.45;;;28.20;;
60312;SDS011;46158;52.850;6.970;2023-09-19T13:45:07;48.05;;;27.83;;
60312;SDS011;46158;52.850;6.970;2023-09-19T13:47:34;41.42;;;23.23;;
60312;SDS011;46158;52.850;6.970;2023-09-19T13:50:03;40.85;;;21.17;;
60312;SDS011;46158;52.850;6.970;2023-09-19T13:52:30;35.72;;;17.25;;
60312;SDS011;46158;52.850;6.970;2023-09-19T13:54:56;32.67;;;15.95;;
60312;SDS011;46158;52.850;6.970;2023-09-19T13:57:23;37.42;;;17.83;;
60312;SDS011;46158;52.850;6.970;2023-09-19T13:59:49;30.90;;;14.90;;
60312;SDS011;46158;52.850;6.970;2023-09-19T14:02:15;36.88;;;15.48;;
60312;SDS011;46158;52.850;6.970;2023-09-19T14:04:43;32.22;;;15.05;;
60312;SDS011;46158;52.850;6.970;2023-09-19T14:07:09;29.35;;;12.60;;
60312;SDS011;46158;52.850;6.970;2023-09-19T14:09:35;31.50;;;12.55;;
60312;SDS011;46158;52.850;6.970;2023-09-19T14:12:01;29.83;;;13.63;;
60312;SDS011;46158;52.850;6.970;2023-09-19T14:14:27;29.63;;;12.57;;
60312;SDS011;46158;52.850;6.970;2023-09-19T14:16:53;26.98;;;10.63;;
60312;SDS011;46158;52.850;6.970;2023-09-19T14:19:20;29.15;;;12.50;;
60312;SDS011;46158;52.850;6.970;2023-09-19T14:21:46;25.63;;;9.90;;
60312;SDS011;46158;52.850;6.970;2023-09-19T14:24:16;23.25;;;8.23;;
60312;SDS011;46158;52.850;6.970;2023-09-19T14:26:44;24.45;;;9.30;;
60312;SDS011;46158;52.850;6.970;2023-09-19T14:29:10;24.40;;;9.15;;
60312;SDS011;46158;52.850;6.970;2023-09-19T14:31:39;25.02;;;8.73;;
60312;SDS011;46158;52.850;6.970;2023-09-19T14:34:06;23.83;;;7.80;;
60312;SDS011;46158;52.850;6.970;2023-09-19T14:36:34;23.40;;;7.57;;
60312;SDS011;46158;52.850;6.970;2023-09-19T14:39:00;23.70;;;6.82;;
60312;SDS011;46158;52.850;6.970;2023-09-19T14:41:25;22.98;;;7.82;;
60312;SDS011;46158;52.850;6.970;2023-09-19T14:43:51;20.92;;;6.60;;
60312;SDS011;46158;52.850;6.970;2023-09-19T14:46:17;21.50;;;6.30;;
60312;SDS011;46158;52.850;6.970;2023-09-19T14:48:44;19.90;;;5.70;;
60312;SDS011;46158;52.850;6.970;2023-09-19T14:51:12;23.50;;;5.43;;
60312;SDS011;46158;52.850;6.970;2023-09-19T14:53:38;21.15;;;4.95;;
60312;SDS011;46158;52.850;6.970;2023-09-19T14:56:07;16.48;;;4.50;;
60312;SDS011;46158;52.850;6.970;2023-09-19T14:58:34;19.80;;;5.57;;
60312;SDS011;46158;52.850;6.970;2023-09-19T15:01:10;18.55;;;4.78;;
60312;SDS011;46158;52.850;6.970;2023-09-19T15:03:36;16.70;;;4.95;;
60312;SDS011;46158;52.850;6.970;2023-09-19T15:06:05;18.42;;;4.13;;
60312;SDS011;46158;52.850;6.970;2023-09-19T15:08:36;19.52;;;4.20;;
60312;SDS011;46158;52.850;6.970;2023-09-19T15:11:05;17.90;;;4.30;;
60312;SDS011;46158;52.850;6.970;2023-09-19T15:13:35;19.17;;;4.70;;
60312;SDS011;46158;52.850;6.970;2023-09-19T15:16:02;17.45;;;4.50;;
60312;SDS011;46158;52.850;6.970;2023-09-19T15:18:29;17.77;;;4.80;;
60312;SDS011;46158;52.850;6.970;2023-09-19T15:20:56;16.50;;;4.80;;
60312;SDS011;46158;52.850;6.970;2023-09-19T15:23:31;19.33;;;4.80;;
60312;SDS011;46158;52.850;6.970;2023-09-19T15:26:02;16.70;;;3.95;;
60312;SDS011;46158;52.850;6.970;2023-09-19T15:28:32;17.90;;;4.10;;
60312;SDS011;46158;52.850;6.970;2023-09-19T15:31:02;17.50;;;3.58;;
60312;SDS011;46158;52.850;6.970;2023-09-19T15:33:29;15.73;;;3.17;;
60312;SDS011;46158;52.850;6.970;2023-09-19T15:36:05;17.27;;;3.30;;
60312;SDS011;46158;52.850;6.970;2023-09-19T15:38:32;14.73;;;3.33;;
60312;SDS011;46158;52.850;6.970;2023-09-19T15:41:22;15.95;;;3.65;;
60312;SDS011;46158;52.850;6.970;2023-09-19T15:44:17;12.13;;;2.92;;
60312;SDS011;46158;52.850;6.970;2023-09-19T15:46:44;15.57;;;3.10;;
60312;SDS011;46158;52.850;6.970;2023-09-19T15:49:10;11.18;;;2.85;;